In Rescue
 
Open Full Screen Window  High Contrast Mode
Wind Gusting 15 knots
08
May 25, 2022 9:38 PM EDT
Weather Information
Wind Direction
  120 °
Wind Speed
  08 kt (9 mph)
Wind Gust
  15 kt (17 mph)
Altimeter
29.94 in
Visibility
10 SM
Temperature
19° C
66° F
Dewpoint
14° C
57° F
Humidity
73%
1hr Rain Fall
00.00 in.
24hr Rain Fall
00.21 in.
Sky Condition
Clear
VFR

METAR KOZW 260138Z AUTO 12008G15KT 10SM CLR 19/14 A2994 RMK AO2 T01890143

FAA Disclaimer: The data displayed is for advisory purposes only and is not to be used for flight planning or operations.